Time;durP1;ratioP1;P1;durP2;ratioP2;P2;SDS_P1;SDS_P2;PMS_P1;PMS_P2;Temp;Humidity;BMP_temperature;BMP_pressure;BME280_temperature;BME280_humidity;BME280_pressure;Samples;Min_cycle;Max_cycle;Signal;HPM_P1;HPM_P2
2022/06/24 00:00:39;;;;;;;5.43;5.03;;;26.50;61.30;;;;;;4939015;29;20532;-89
2022/06/24 00:03:06;;;;;;;5.23;4.73;;;26.40;61.30;;;;;;4939305;29;20186;-89
2022/06/24 00:05:34;;;;;;;5.30;4.80;;;26.40;61.30;;;;;;4956987;29;20784;-88
2022/06/24 00:08:00;;;;;;;5.30;4.80;;;26.40;60.70;;;;;;4956836;29;20835;-86
2022/06/24 00:10:32;;;;;;;4.87;4.57;;;26.40;60.90;;;;;;4956870;29;20487;-85
2022/06/24 00:12:58;;;;;;;5.27;4.70;;;26.30;61.00;;;;;;4939382;29;20938;-87
2022/06/24 00:15:35;;;;;;;8.30;5.57;;;26.30;61.40;;;;;;4956795;29;20784;-87
2022/06/24 00:18:26;;;;;;;4.93;4.00;;;26.30;61.20;;;;;;4956685;29;20815;-87
2022/06/24 00:20:52;;;;;;;4.90;4.50;;;26.30;61.20;;;;;;4953820;29;20482;-88
2022/06/24 00:23:19;;;;;;;5.20;4.40;;;26.20;61.20;;;;;;4957178;29;20429;-89
2022/06/24 00:25:46;;;;;;;6.87;4.90;;;26.30;61.00;;;;;;4956857;29;20167;-88
2022/06/24 00:28:13;;;;;;;5.20;4.90;;;26.30;61.40;;;;;;4957134;29;20930;-89
2022/06/24 00:30:53;;;;;;;5.50;4.97;;;26.20;61.20;;;;;;4956612;29;20445;-87
2022/06/24 00:33:21;;;;;;;7.30;4.50;;;26.20;61.30;;;;;;4950454;29;20448;-88
2022/06/24 00:35:56;;;;;;;6.30;4.97;;;26.20;61.30;;;;;;4956683;29;20440;-88
2022/06/24 00:38:35;;;;;;;7.20;5.23;;;26.00;61.50;;;;;;4956665;29;20481;-88
2022/06/24 00:41:02;;;;;;;5.37;3.93;;;25.90;61.50;;;;;;4956685;29;20426;-88
2022/06/24 00:43:42;;;;;;;4.83;4.53;;;25.80;61.50;;;;;;4939226;29;20438;-85
2022/06/24 00:46:33;;;;;;;6.20;4.73;;;25.80;63.40;;;;;;4956443;29;20424;-85
2022/06/24 00:48:59;;;;;;;5.50;5.00;;;25.70;64.80;;;;;;4956795;29;20466;-85
2022/06/24 00:51:41;;;;;;;5.03;4.53;;;25.70;66.20;;;;;;4958052;29;20414;-85
2022/06/24 00:54:15;;;;;;;5.70;5.10;;;25.70;65.80;;;;;;4979505;28;20231;-85
2022/06/24 00:56:41;;;;;;;5.00;4.70;;;25.60;66.30;;;;;;4977170;29;20434;-84
2022/06/24 00:59:08;;;;;;;5.13;4.63;;;25.50;66.50;;;;;;4959457;29;20533;-84
2022/06/24 01:01:33;;;;;;;5.17;4.67;;;25.50;67.00;;;;;;4939646;29;20525;-81
2022/06/24 01:04:00;;;;;;;5.60;5.00;;;25.50;68.20;;;;;;4939436;29;20518;-81
2022/06/24 01:06:27;;;;;;;4.53;4.20;;;25.40;67.70;;;;;;4956467;29;20198;-81
2022/06/24 01:08:54;;;;;;;5.17;4.67;;;25.40;69.80;;;;;;4955962;29;20438;-81
2022/06/24 01:11:43;;;;;;;5.50;4.10;;;25.40;65.80;;;;;;4955794;29;20513;-81
2022/06/24 01:14:10;;;;;;;7.13;5.70;;;25.40;65.00;;;;;;4948184;29;20565;-81
2022/06/24 01:16:37;;;;;;;6.43;5.20;;;25.50;66.60;;;;;;4955577;29;21011;-81
2022/06/24 01:19:06;;;;;;;6.67;4.97;;;25.50;70.50;;;;;;4955646;29;20447;-80
2022/06/24 01:21:39;;;;;;;6.10;5.40;;;25.50;76.90;;;;;;4955691;29;20774;-82
2022/06/24 01:24:21;;;;;;;7.97;5.07;;;25.50;84.70;;;;;;4954878;28;20948;-86
2022/06/24 04:30:53;;;;;;;12.33;10.83;;;22.20;99.90;;;;;;5772871;23;20528;-78
2022/06/24 04:33:18;;;;;;;15.60;12.00;;;22.20;99.90;;;;;;4939123;29;20438;-78
2022/06/24 04:35:44;;;;;;;20.23;11.87;;;22.20;99.90;;;;;;4956399;29;20166;-79
2022/06/24 04:38:09;;;;;;;21.40;15.37;;;22.20;99.90;;;;;;4956192;29;20206;-79
2022/06/24 04:40:35;;;;;;;14.80;12.10;;;22.20;99.90;;;;;;4956384;29;20358;-80
2022/06/24 04:43:00;;;;;;;13.90;12.43;;;22.30;99.90;;;;;;4956218;29;20175;-79
2022/06/24 04:45:26;;;;;;;14.95;11.40;;;22.30;99.90;;;;;;4955359;29;20432;-78
2022/06/24 04:47:51;;;;;;;10.43;9.43;;;22.30;99.90;;;;;;4956160;29;20241;-79
2022/06/24 04:50:17;;;;;;;12.30;9.27;;;22.30;99.90;;;;;;4956219;29;20179;-86
2022/06/24 04:52:43;;;;;;;9.70;8.70;;;22.40;99.90;;;;;;4956429;29;20210;-93
2022/06/24 04:55:08;;;;;;;11.20;7.80;;;22.40;99.90;;;;;;4956467;29;20210;-90
2022/06/24 04:57:34;;;;;;;11.97;8.17;;;22.40;99.90;;;;;;4956496;29;20695;-88
2022/06/24 05:00:00;;;;;;;20.20;14.23;;;22.30;99.90;;;;;;4956232;28;20186;-83
2022/06/24 05:02:26;;;;;;;18.60;13.30;;;22.30;99.90;;;;;;4956129;29;20198;-85
2022/06/24 05:04:51;;;;;;;21.43;13.77;;;22.30;99.90;;;;;;4937736;29;20186;-83
2022/06/24 05:07:17;;;;;;;21.27;12.03;;;22.20;99.90;;;;;;4954858;29;20430;-88
2022/06/24 05:09:43;;;;;;;14.93;11.10;;;22.10;99.90;;;;;;4937728;29;20670;-83
2022/06/24 05:12:09;;;;;;;15.83;8.80;;;22.20;99.90;;;;;;4954859;29;20185;-82
2022/06/24 05:14:35;;;;;;;15.90;12.10;;;22.10;99.90;;;;;;4955285;29;20697;-88
2022/06/24 05:17:01;;;;;;;20.27;10.10;;;22.10;99.90;;;;;;4955595;29;20476;-79
2022/06/24 05:19:27;;;;;;;23.07;11.43;;;22.00;99.90;;;;;;4954782;29;20458;-77
2022/06/24 05:21:53;;;;;;;14.30;9.97;;;22.10;99.90;;;;;;4954462;29;20426;-77
2022/06/24 05:24:19;;;;;;;9.33;8.20;;;22.20;99.90;;;;;;4954574;29;20513;-76
2022/06/24 05:26:45;;;;;;;13.03;7.87;;;22.20;99.90;;;;;;4954590;29;20434;-78
2022/06/24 05:29:11;;;;;;;9.43;8.40;;;22.20;99.90;;;;;;4954313;29;20193;-79
2022/06/24 05:31:37;;;;;;;10.03;7.70;;;22.20;99.90;;;;;;4954399;29;20474;-79
2022/06/24 05:34:03;;;;;;;12.73;8.53;;;22.20;99.90;;;;;;4954496;29;20206;-79
2022/06/24 05:36:30;;;;;;;13.80;8.37;;;22.30;99.90;;;;;;4954305;29;20426;-74
2022/06/24 05:38:55;;;;;;;9.25;8.10;;;22.20;99.90;;;;;;4953970;29;20947;-75
2022/06/24 05:41:22;;;;;;;12.37;8.13;;;22.30;99.90;;;;;;4954267;29;20178;-75
2022/06/24 05:43:47;;;;;;;8.87;7.60;;;22.30;99.90;;;;;;4954141;29;20182;-76
2022/06/24 05:46:13;;;;;;;11.40;7.30;;;22.30;99.90;;;;;;4954095;29;20426;-75
2022/06/24 05:48:40;;;;;;;10.60;8.13;;;22.30;99.90;;;;;;4954071;29;20701;-76
2022/06/24 05:51:10;;;;;;;11.30;7.17;;;22.30;99.90;;;;;;4954155;29;20202;-76
2022/06/24 05:56:21;;;;;;;8.53;5.73;;;22.30;99.90;;;;;;4954538;29;20826;-76
2022/06/24 05:58:46;;;;;;;7.47;5.30;;;22.20;99.90;;;;;;4954031;29;20470;-75
2022/06/24 06:01:12;;;;;;;8.30;5.10;;;22.20;99.90;;;;;;4953931;29;20209;-75
2022/06/24 06:03:38;;;;;;;7.80;4.33;;;22.20;99.90;;;;;;4953901;29;20174;-75
2022/06/24 06:06:05;;;;;;;5.00;4.30;;;22.20;99.90;;;;;;4953830;29;20538;-75
2022/06/24 06:08:31;;;;;;;5.40;3.83;;;22.10;99.90;;;;;;4953935;29;20457;-75
2022/06/24 06:10:56;;;;;;;4.57;3.60;;;22.10;99.90;;;;;;4953488;29;20925;-75
2022/06/24 06:13:22;;;;;;;5.87;2.80;;;22.00;99.90;;;;;;4953924;29;20546;-76
2022/06/24 06:15:47;;;;;;;6.90;3.57;;;22.00;99.90;;;;;;4953897;29;20181;-77
2022/06/24 06:18:13;;;;;;;4.83;3.00;;;22.00;99.90;;;;;;4953676;29;20669;-78
2022/06/24 06:20:38;;;;;;;3.73;2.70;;;21.90;99.90;;;;;;4953721;29;20257;-77
2022/06/24 06:23:04;;;;;;;5.63;3.20;;;21.90;99.90;;;;;;4953829;29;20249;-75
2022/06/24 06:25:31;;;;;;;9.50;3.77;;;21.90;99.90;;;;;;4953932;29;20206;-75
2022/06/24 06:27:57;;;;;;;6.70;3.20;;;21.80;99.90;;;;;;4953722;29;20426;-75
2022/06/24 06:30:22;;;;;;;9.57;3.40;;;21.80;99.90;;;;;;4953424;29;20448;-74
2022/06/24 06:32:48;;;;;;;4.70;2.90;;;21.80;99.90;;;;;;4953894;29;20623;-74
2022/06/24 06:35:13;;;;;;;7.00;3.53;;;21.80;99.90;;;;;;4953572;29;20179;-73
2022/06/24 06:37:39;;;;;;;3.73;3.30;;;21.70;99.90;;;;;;4953691;29;20218;-73
2022/06/24 06:40:05;;;;;;;7.60;3.33;;;21.70;99.90;;;;;;4953777;29;20182;-74
2022/06/24 06:42:30;;;;;;;4.13;3.17;;;21.70;99.90;;;;;;4953592;29;20241;-74
2022/06/24 06:44:56;;;;;;;5.00;3.60;;;21.70;99.90;;;;;;4953696;29;20426;-74
2022/06/24 06:47:22;;;;;;;5.57;3.63;;;21.70;99.90;;;;;;4953535;29;20622;-73
2022/06/24 06:49:47;;;;;;;9.10;2.80;;;21.80;99.90;;;;;;4953736;29;20174;-74
2022/06/24 06:52:13;;;;;;;5.83;2.90;;;21.80;99.90;;;;;;4953326;29;20190;-71
2022/06/24 06:54:38;;;;;;;5.40;3.33;;;21.80;99.90;;;;;;4953459;29;20175;-71
2022/06/24 06:57:04;;;;;;;4.03;2.50;;;21.80;99.90;;;;;;4953324;29;20218;-72
2022/06/24 06:59:30;;;;;;;7.90;2.77;;;21.80;99.90;;;;;;4953502;29;20181;-72
2022/06/24 07:01:55;;;;;;;8.90;3.00;;;21.80;99.90;;;;;;4953287;29;20438;-76
2022/06/24 07:04:21;;;;;;;5.50;2.40;;;21.90;99.90;;;;;;4953297;29;20170;-75
2022/06/24 07:06:47;;;;;;;8.60;3.00;;;21.90;99.90;;;;;;4953251;29;20210;-74
2022/06/24 07:09:12;;;;;;;5.50;2.53;;;21.90;99.90;;;;;;4953177;29;20187;-75
2022/06/24 07:11:38;;;;;;;3.83;2.93;;;22.00;99.90;;;;;;4953311;29;20175;-75
2022/06/24 07:14:04;;;;;;;4.87;2.80;;;21.90;99.90;;;;;;4953380;29;20269;-74
2022/06/24 07:16:29;;;;;;;5.40;2.83;;;21.90;99.90;;;;;;4953299;29;20171;-75
2022/06/24 07:18:55;;;;;;;3.53;2.70;;;21.90;99.90;;;;;;4953266;29;20190;-85
2022/06/24 07:21:21;;;;;;;3.43;2.73;;;21.90;99.90;;;;;;4953428;28;20210;-86
2022/06/24 07:23:46;;;;;;;8.70;3.83;;;21.90;99.90;;;;;;4938620;29;20186;-86
2022/06/24 07:26:12;;;;;;;6.00;3.80;;;21.90;99.90;;;;;;4956719;29;20174;-85
2022/06/24 07:28:37;;;;;;;3.40;2.40;;;21.90;99.90;;;;;;4956881;29;20179;-86
2022/06/24 07:31:17;;;;;;;3.60;3.03;;;21.90;99.90;;;;;;4956333;29;20292;-85
2022/06/24 07:33:43;;;;;;;5.53;3.17;;;22.00;99.90;;;;;;4956825;29;20554;-85
2022/06/24 07:36:08;;;;;;;4.43;2.43;;;22.00;99.90;;;;;;4956618;29;20421;-83
2022/06/24 07:38:34;;;;;;;3.70;2.57;;;21.90;99.90;;;;;;4956547;29;20489;-80
2022/06/24 07:41:00;;;;;;;3.10;2.60;;;22.00;99.90;;;;;;4956455;29;20191;-87
2022/06/24 07:43:25;;;;;;;4.13;2.53;;;22.00;99.90;;;;;;4956653;29;20573;-91
2022/06/24 07:45:51;;;;;;;8.50;2.43;;;22.00;99.90;;;;;;4955936;29;20194;-84
2022/06/24 07:48:17;;;;;;;4.47;2.57;;;22.10;99.90;;;;;;4955656;29;20210;-83
2022/06/24 07:50:43;;;;;;;4.70;2.90;;;22.00;99.90;;;;;;4956319;29;20520;-81
2022/06/24 07:53:09;;;;;;;4.60;2.67;;;22.10;99.90;;;;;;4955912;29;20211;-80
2022/06/24 07:58:18;;;;;;;6.30;3.03;;;22.30;99.90;;;;;;4956433;29;20217;-85
2022/06/24 08:00:44;;;;;;;2.60;2.40;;;22.40;99.90;;;;;;4956212;29;20422;-83
2022/06/24 08:03:09;;;;;;;6.53;2.67;;;22.50;99.90;;;;;;4955972;29;20225;-82
2022/06/24 08:05:35;;;;;;;8.10;2.33;;;22.50;99.90;;;;;;4955884;29;20178;-84
2022/06/24 08:08:00;;;;;;;4.03;2.50;;;22.60;99.90;;;;;;4955489;29;20444;-83
2022/06/24 08:10:26;;;;;;;4.30;3.10;;;22.60;99.90;;;;;;4956238;29;20482;-82
2022/06/24 08:12:51;;;;;;;3.33;2.67;;;22.60;99.90;;;;;;4955393;29;20638;-83
2022/06/24 08:15:18;;;;;;;7.00;3.00;;;22.60;99.90;;;;;;4952678;29;20642;-77
2022/06/24 08:17:44;;;;;;;3.67;2.87;;;22.60;99.90;;;;;;4955351;29;20293;-80
2022/06/24 08:20:10;;;;;;;5.30;2.33;;;22.70;99.90;;;;;;4955062;29;20532;-77
2022/06/24 08:22:36;;;;;;;4.97;2.40;;;22.70;99.90;;;;;;4955382;29;20446;-80
2022/06/24 08:25:02;;;;;;;5.33;3.07;;;22.80;99.90;;;;;;4955119;29;20433;-78
2022/06/24 08:27:27;;;;;;;5.20;2.80;;;22.80;99.90;;;;;;4955678;29;20177;-76
2022/06/24 08:29:53;;;;;;;5.83;2.80;;;22.90;99.90;;;;;;4955499;29;20418;-77
2022/06/24 08:32:18;;;;;;;7.90;2.77;;;22.90;99.90;;;;;;4938297;29;20226;-82
2022/06/24 08:34:44;;;;;;;10.70;3.07;;;22.90;99.90;;;;;;4953998;28;20225;-79
2022/06/24 08:37:10;;;;;;;8.57;3.20;;;23.00;99.90;;;;;;4955384;29;20324;-82
2022/06/24 08:39:35;;;;;;;4.10;2.33;;;23.00;99.90;;;;;;4955414;29;20187;-83
2022/06/24 08:42:03;;;;;;;3.20;2.50;;;23.10;99.90;;;;;;4955408;29;20633;-75
2022/06/24 08:44:29;;;;;;;4.17;2.97;;;23.20;99.90;;;;;;4955096;29;20275;-77
2022/06/24 08:46:55;;;;;;;6.20;3.73;;;23.30;99.90;;;;;;4955054;29;20425;-75
2022/06/24 08:49:20;;;;;;;6.97;3.30;;;23.30;99.90;;;;;;4955177;29;20171;-77
2022/06/24 08:51:47;;;;;;;3.33;2.63;;;23.40;99.90;;;;;;4955011;29;20626;-77
2022/06/24 08:54:17;;;;;;;3.33;2.47;;;23.50;99.90;;;;;;4954915;29;20189;-76
2022/06/24 08:56:42;;;;;;;6.10;2.70;;;23.60;99.90;;;;;;4955058;29;20489;-77
2022/06/24 08:59:08;;;;;;;6.13;3.03;;;23.70;99.90;;;;;;4954955;29;20891;-76
2022/06/24 09:01:41;;;;;;;7.70;2.80;;;23.80;99.90;;;;;;4955004;29;20528;-76
2022/06/24 09:04:10;;;;;;;4.73;2.93;;;23.80;99.90;;;;;;4954903;29;20548;-76
2022/06/24 09:06:41;;;;;;;8.00;2.70;;;23.80;99.90;;;;;;4954788;29;20438;-76
2022/06/24 09:09:08;;;;;;;7.13;3.27;;;23.90;99.90;;;;;;4954566;29;20430;-75
2022/06/24 09:11:38;;;;;;;7.07;4.60;;;24.00;99.90;;;;;;4954840;29;20790;-75
2022/06/24 09:14:03;;;;;;;3.73;3.33;;;23.90;99.90;;;;;;4954794;29;20793;-75
2022/06/24 09:16:29;;;;;;;6.40;3.90;;;23.60;99.90;;;;;;4954723;29;20430;-76
2022/06/24 09:18:57;;;;;;;3.87;3.57;;;23.70;99.90;;;;;;4954614;29;20312;-76
2022/06/24 09:21:26;;;;;;;5.20;4.00;;;23.60;99.90;;;;;;4954691;29;20711;-76
2022/06/24 09:23:54;;;;;;;4.00;2.97;;;23.40;99.90;;;;;;4954490;29;20480;-76
2022/06/24 09:26:33;;;;;;;5.13;3.40;;;23.20;99.90;;;;;;4954557;29;20426;-77
2022/06/24 09:28:59;;;;;;;5.70;3.10;;;23.00;99.90;;;;;;4954327;29;20948;-77
2022/06/24 09:31:27;;;;;;;3.47;3.20;;;22.90;99.90;;;;;;4954314;29;20961;-77
2022/06/24 09:33:53;;;;;;;4.90;3.80;;;22.90;99.90;;;;;;4954275;29;20441;-77
2022/06/24 09:36:24;;;;;;;3.77;3.40;;;22.90;99.90;;;;;;4954356;29;20461;-76
2022/06/24 09:39:07;;;;;;;3.30;3.00;;;22.90;99.90;;;;;;4954184;29;20535;-76
2022/06/24 09:41:49;;;;;;;3.93;3.63;;;22.80;99.90;;;;;;4955336;29;20422;-76
2022/06/24 09:44:16;;;;;;;4.47;3.27;;;22.70;99.90;;;;;;4954106;28;20496;-77
2022/06/24 09:46:43;;;;;;;4.53;2.50;;;22.70;99.90;;;;;;4953812;29;20475;-77
2022/06/24 09:49:11;;;;;;;3.90;3.10;;;22.60;99.90;;;;;;4953883;29;20796;-79
2022/06/24 09:51:39;;;;;;;13.18;5.45;;;22.50;99.90;;;;;;4953393;29;20442;-81
2022/06/24 09:54:05;;;;;;;7.63;4.30;;;22.50;99.90;;;;;;4954023;29;20182;-76
2022/06/24 09:56:31;;;;;;;6.37;4.33;;;22.50;99.90;;;;;;4954123;29;21036;-76
2022/06/24 10:01:44;;;;;;;3.93;3.40;;;22.40;99.90;;;;;;4954416;29;20441;-76
2022/06/24 10:04:15;;;;;;;3.70;2.80;;;22.20;99.90;;;;;;4953998;29;20438;-75
2022/06/24 10:06:49;;;;;;;4.47;4.07;;;22.20;99.90;;;;;;4954127;29;20509;-75
2022/06/24 10:09:19;;;;;;;7.73;4.33;;;22.20;99.90;;;;;;4953962;29;20433;-76
2022/06/24 10:11:48;;;;;;;6.17;4.27;;;22.20;99.90;;;;;;4954100;29;20441;-76
2022/06/24 10:14:14;;;;;;;7.17;4.80;;;22.00;99.90;;;;;;4953791;29;20426;-76
2022/06/24 10:16:42;;;;;;;4.60;4.20;;;21.90;99.90;;;;;;4953828;29;20430;-75
2022/06/24 10:19:11;;;;;;;10.67;6.10;;;22.10;99.90;;;;;;4953987;29;20173;-77
2022/06/24 10:21:37;;;;;;;8.17;5.80;;;22.00;99.90;;;;;;4953719;29;20414;-76
2022/06/24 10:24:14;;;;;;;5.60;4.57;;;22.00;99.90;;;;;;4953666;29;20438;-76
2022/06/24 10:26:44;;;;;;;6.10;5.07;;;22.00;99.90;;;;;;4953839;29;20422;-76
2022/06/24 10:29:19;;;;;;;7.07;6.10;;;21.90;99.90;;;;;;4953692;29;20422;-77
2022/06/24 10:31:45;;;;;;;7.23;5.83;;;21.90;99.90;;;;;;4953679;29;20960;-77
2022/06/24 10:34:22;;;;;;;8.87;5.53;;;21.90;99.90;;;;;;4953697;29;20544;-75
2022/06/24 10:37:03;;;;;;;6.67;6.03;;;22.00;99.90;;;;;;4953775;29;20182;-80
2022/06/24 10:39:31;;;;;;;7.50;5.47;;;21.90;99.90;;;;;;4953940;29;20754;-83
2022/06/24 10:42:05;;;;;;;6.90;5.57;;;21.90;99.90;;;;;;4954789;29;20438;-87
2022/06/24 10:44:32;;;;;;;5.27;4.67;;;21.80;99.90;;;;;;4954078;29;20440;-83
2022/06/24 10:47:10;;;;;;;8.40;6.33;;;21.80;99.90;;;;;;4953986;29;20441;-88
2022/06/24 10:50:24;;;;;;;8.03;6.37;;;21.70;99.90;;;;;;4953844;29;20441;-87
2022/06/24 10:52:48;;;;;;;7.30;6.60;;;21.80;99.90;;;;;;4949972;29;20449;-84
2022/06/24 10:55:16;;;;;;;10.37;6.60;;;21.80;99.90;;;;;;4953644;29;20569;-85
2022/06/24 10:57:47;;;;;;;10.20;6.70;;;21.80;99.90;;;;;;4939328;29;20832;-88
2022/06/24 11:00:15;;;;;;;8.80;5.77;;;21.80;99.90;;;;;;4940049;29;20908;-84
2022/06/24 11:02:51;;;;;;;7.20;5.77;;;21.90;99.90;;;;;;4957554;29;20919;-88
2022/06/24 11:05:25;;;;;;;6.53;5.57;;;21.90;99.90;;;;;;4957164;29;20509;-86
2022/06/24 11:07:52;;;;;;;8.33;6.13;;;22.00;99.90;;;;;;4957187;29;20937;-80
2022/06/24 11:10:19;;;;;;;7.90;6.17;;;22.10;99.90;;;;;;4956972;29;20457;-79
2022/06/24 11:12:48;;;;;;;11.10;6.67;;;22.10;99.90;;;;;;4957007;29;20434;-81
2022/06/24 11:15:14;;;;;;;7.07;6.47;;;22.10;99.90;;;;;;4957478;29;20438;-81
2022/06/24 11:17:41;;;;;;;7.10;6.50;;;22.20;99.90;;;;;;4957377;29;20481;-83
2022/06/24 11:20:11;;;;;;;7.23;6.53;;;22.40;99.90;;;;;;4957246;29;20237;-84
2022/06/24 11:22:44;;;;;;;7.77;6.27;;;22.50;99.90;;;;;;4957479;29;20430;-82
2022/06/24 11:25:15;;;;;;;8.00;5.90;;;22.50;99.90;;;;;;4956898;29;20431;-82
2022/06/24 11:27:41;;;;;;;7.57;6.77;;;22.50;99.90;;;;;;4957338;29;20450;-80
2022/06/24 11:30:08;;;;;;;6.43;5.87;;;22.60;99.90;;;;;;4957270;29;20786;-83
2022/06/24 11:32:53;;;;;;;7.07;4.90;;;22.70;99.90;;;;;;4956906;29;20877;-81
2022/06/24 11:35:20;;;;;;;5.97;5.47;;;22.80;99.90;;;;;;4956786;29;20460;-87
2022/06/24 11:37:45;;;;;;;6.00;4.77;;;22.80;99.90;;;;;;4957923;29;20504;-89
2022/06/24 11:40:22;;;;;;;8.27;5.40;;;22.90;99.90;;;;;;4959249;29;20430;-87
2022/06/24 11:42:48;;;;;;;8.07;4.87;;;22.90;99.90;;;;;;4940892;29;20542;-79
2022/06/24 11:45:13;;;;;;;13.10;4.67;;;22.90;99.90;;;;;;4956755;29;20426;-77
2022/06/24 11:47:39;;;;;;;3.83;3.43;;;23.00;99.90;;;;;;4956616;29;20206;-81
2022/06/24 11:50:05;;;;;;;8.23;4.60;;;23.10;99.90;;;;;;4956285;29;20174;-80
2022/06/24 11:52:49;;;;;;;5.90;4.80;;;23.20;99.90;;;;;;4956583;29;20265;-82
2022/06/24 11:55:25;;;;;;;4.67;4.27;;;23.30;99.90;;;;;;4957240;29;20178;-84
2022/06/24 11:57:56;;;;;;;5.70;5.20;;;23.50;99.90;;;;;;4957674;29;20484;-82
2022/06/24 12:00:23;;;;;;;5.00;4.50;;;23.70;99.90;;;;;;4956765;29;20860;-85
2022/06/24 12:02:50;;;;;;;6.30;4.50;;;23.80;99.90;;;;;;4956628;29;20740;-81
2022/06/24 12:05:16;;;;;;;5.20;4.30;;;24.00;99.90;;;;;;4956224;29;20426;-83
2022/06/24 12:07:42;;;;;;;5.63;4.20;;;24.10;99.90;;;;;;4956227;28;20489;-82
2022/06/24 12:10:08;;;;;;;5.17;4.77;;;24.40;99.90;;;;;;4956348;29;20426;-82
2022/06/24 12:12:35;;;;;;;6.87;5.50;;;24.50;99.90;;;;;;4956907;29;20457;-88
2022/06/24 12:15:01;;;;;;;7.37;5.47;;;24.60;99.90;;;;;;4956390;29;20178;-86
2022/06/24 12:17:28;;;;;;;6.53;5.50;;;24.70;99.90;;;;;;4956021;29;20531;-86
2022/06/24 12:20:01;;;;;;;9.67;5.63;;;24.70;99.90;;;;;;4955892;29;20185;-86
2022/06/24 12:22:27;;;;;;;8.07;6.33;;;24.60;99.90;;;;;;4955920;29;20504;-84
2022/06/24 12:25:06;;;;;;;5.83;5.30;;;24.50;99.90;;;;;;4956167;29;20472;-82
2022/06/24 12:27:36;;;;;;;7.55;6.00;;;24.30;99.90;;;;;;4954902;29;20795;-84
2022/06/24 12:30:03;;;;;;;12.43;7.43;;;24.50;99.90;;;;;;4955597;29;20657;-85
2022/06/24 12:32:48;;;;;;;6.70;6.10;;;24.50;99.90;;;;;;4955589;29;20885;-86
2022/06/24 12:35:13;;;;;;;6.90;6.30;;;24.60;99.90;;;;;;4954337;29;20454;-87
2022/06/24 12:37:51;;;;;;;6.60;6.00;;;24.60;99.90;;;;;;4952622;29;20493;-86
2022/06/24 12:40:23;;;;;;;9.90;4.90;;;24.60;99.90;;;;;;4955363;29;20206;-87
2022/06/24 12:43:08;;;;;;;6.57;5.17;;;24.60;99.90;;;;;;4944246;29;20443;-85
2022/06/24 12:45:38;;;;;;;8.30;5.83;;;24.60;99.90;;;;;;4951612;28;20433;-86
2022/06/24 12:51:00;;;;;;;7.80;6.50;;;24.50;99.90;;;;;;4942546;29;20425;-86
2022/06/24 12:53:27;;;;;;;6.90;5.47;;;24.50;99.90;;;;;;4956875;29;20525;-84
2022/06/24 12:55:53;;;;;;;7.30;6.70;;;24.60;99.90;;;;;;4955181;28;20442;-83
2022/06/24 12:58:18;;;;;;;6.60;6.00;;;24.70;99.90;;;;;;4944621;28;20482;-83
2022/06/24 13:00:44;;;;;;;9.33;6.67;;;24.70;99.90;;;;;;4930355;29;20446;-86
2022/06/24 13:03:10;;;;;;;6.33;5.73;;;24.60;99.90;;;;;;4949380;28;20189;-83
2022/06/24 13:05:35;;;;;;;9.20;6.30;;;24.60;99.90;;;;;;4939922;29;20175;-85
2022/06/24 13:08:01;;;;;;;9.10;6.27;;;24.70;99.90;;;;;;4950508;28;20223;-86
2022/06/24 13:10:26;;;;;;;7.03;6.33;;;24.70;99.90;;;;;;4955571;29;20233;-88
2022/06/24 13:12:52;;;;;;;7.10;6.10;;;24.70;99.90;;;;;;4954472;29;20197;-83
2022/06/24 13:15:18;;;;;;;6.47;5.87;;;24.80;99.90;;;;;;4951987;28;20175;-81
2022/06/24 13:17:44;;;;;;;6.57;5.07;;;24.90;99.90;;;;;;4955380;29;20252;-83
2022/06/24 13:20:13;;;;;;;5.90;4.87;;;25.10;99.90;;;;;;4950306;28;20185;-84
2022/06/24 13:22:39;;;;;;;5.73;5.17;;;25.30;99.90;;;;;;4950168;29;20181;-82
2022/06/24 13:25:06;;;;;;;6.37;5.47;;;25.30;99.90;;;;;;4955252;28;20485;-78
2022/06/24 13:27:33;;;;;;;5.77;4.90;;;25.30;99.90;;;;;;4946509;28;20466;-88
2022/06/24 13:29:59;;;;;;;5.37;4.70;;;25.20;99.90;;;;;;4956503;29;20873;-88
2022/06/24 13:32:24;;;;;;;4.10;3.60;;;25.30;99.90;;;;;;4940196;29;20509;-88
2022/06/24 13:34:50;;;;;;;5.07;4.00;;;25.40;99.90;;;;;;4952559;28;20434;-87
2022/06/24 13:37:16;;;;;;;3.90;3.60;;;25.50;99.90;;;;;;4953004;28;20206;-86
2022/06/24 13:39:41;;;;;;;5.73;3.60;;;25.60;99.90;;;;;;4960184;29;20193;-88
2022/06/24 13:42:07;;;;;;;5.23;4.20;;;25.80;99.90;;;;;;4954992;29;20166;-89
2022/06/24 13:44:35;;;;;;;4.50;4.10;;;26.00;99.90;;;;;;4962797;29;20678;-89
2022/06/24 13:47:01;;;;;;;5.80;4.00;;;26.10;99.90;;;;;;4962471;28;20672;-89
2022/06/24 13:49:28;;;;;;;4.00;3.63;;;26.10;99.90;;;;;;4946866;29;20446;-89
2022/06/24 13:51:53;;;;;;;4.63;3.50;;;26.10;99.90;;;;;;4955562;28;20485;-89
2022/06/24 13:54:19;;;;;;;5.37;3.23;;;26.30;99.90;;;;;;4948983;28;20186;-89
2022/06/24 13:56:45;;;;;;;3.57;3.27;;;26.50;99.90;;;;;;4955070;29;20595;-88
2022/06/24 13:59:11;;;;;;;3.93;3.63;;;26.50;99.90;;;;;;4955776;28;20241;-87
2022/06/24 14:01:36;;;;;;;4.00;3.70;;;26.70;99.90;;;;;;4944517;28;20179;-89
2022/06/24 14:04:02;;;;;;;5.70;3.30;;;26.90;99.90;;;;;;4951614;28;20531;-89
2022/06/24 14:06:28;;;;;;;3.80;3.10;;;26.90;99.90;;;;;;4938263;29;20183;-80
2022/06/24 14:08:54;;;;;;;3.80;3.50;;;27.00;99.90;;;;;;4951408;29;20445;-84
2022/06/24 14:11:20;;;;;;;3.53;2.87;;;27.00;99.90;;;;;;4949880;29;20229;-87
2022/06/24 14:13:45;;;;;;;3.50;3.20;;;27.00;99.90;;;;;;4947315;29;20446;-88
2022/06/24 14:16:11;;;;;;;4.03;3.67;;;27.20;99.90;;;;;;4952768;28;20214;-88
2022/06/24 14:18:37;;;;;;;3.97;3.03;;;27.20;99.90;;;;;;4950508;29;20224;-86
2022/06/24 14:21:03;;;;;;;5.27;3.53;;;27.30;99.90;;;;;;4936907;29;20183;-80
2022/06/24 14:26:13;;;;;;;3.70;2.87;;;27.20;99.90;;;;;;4951591;29;20446;-81
2022/06/24 14:28:39;;;;;;;5.07;3.90;;;27.30;99.90;;;;;;4946095;29;20469;-79
2022/06/24 14:31:06;;;;;;;5.40;3.40;;;27.30;99.90;;;;;;4931969;28;20851;-87
2022/06/24 14:33:31;;;;;;;5.00;3.87;;;27.20;99.90;;;;;;4957672;29;20170;-86
2022/06/24 14:35:57;;;;;;;5.03;3.33;;;27.30;99.90;;;;;;4957740;29;20847;-84
2022/06/24 14:41:06;;;;;;;4.37;4.07;;;27.20;99.90;;;;;;4957445;29;20185;-80
2022/06/24 14:43:32;;;;;;;3.57;3.27;;;27.20;99.90;;;;;;4952159;28;20446;-81
2022/06/24 14:45:57;;;;;;;4.93;3.10;;;27.20;99.90;;;;;;4958196;29;20548;-82
2022/06/24 14:48:23;;;;;;;4.03;3.73;;;27.20;99.90;;;;;;4952956;28;20624;-83
2022/06/24 14:50:49;;;;;;;5.80;4.63;;;27.30;99.90;;;;;;4957969;29;20552;-81
2022/06/24 14:53:16;;;;;;;4.00;3.60;;;27.30;99.90;;;;;;4958186;29;20293;-82
2022/06/24 14:55:41;;;;;;;4.60;3.97;;;27.10;99.90;;;;;;4955317;28;20437;-82
2022/06/24 14:58:07;;;;;;;4.80;3.40;;;27.20;99.90;;;;;;4952034;28;20485;-82
2022/06/24 15:00:34;;;;;;;4.67;3.73;;;26.90;99.90;;;;;;4956592;29;20189;-78
2022/06/24 15:02:59;;;;;;;4.10;3.80;;;26.80;99.90;;;;;;4957630;29;20198;-82
2022/06/24 15:05:26;;;;;;;3.73;3.40;;;26.60;99.90;;;;;;4958284;29;20422;-79
2022/06/24 15:07:51;;;;;;;3.80;3.50;;;26.60;99.90;;;;;;4951449;29;20442;-79
2022/06/24 15:10:17;;;;;;;4.27;3.87;;;26.50;99.90;;;;;;4957340;29;20187;-79
2022/06/24 15:12:43;;;;;;;4.70;4.23;;;26.40;99.90;;;;;;4952198;28;20673;-79
2022/06/24 15:15:09;;;;;;;4.33;3.90;;;26.30;99.90;;;;;;4950885;28;20316;-85
2022/06/24 15:17:35;;;;;;;5.73;5.33;;;26.20;99.90;;;;;;4940179;29;20748;-81
2022/06/24 15:20:01;;;;;;;5.90;4.50;;;26.20;99.90;;;;;;4957258;29;20432;-81
2022/06/24 15:22:27;;;;;;;7.32;6.30;;;26.10;99.90;;;;;;4956730;29;20828;-81
2022/06/24 15:24:53;;;;;;;7.90;6.73;;;26.00;99.90;;;;;;4957972;29;20178;-81
2022/06/24 15:27:19;;;;;;;8.40;6.77;;;25.80;99.90;;;;;;4957634;29;20689;-81
2022/06/24 15:29:45;;;;;;;7.70;7.10;;;25.80;99.90;;;;;;4957578;29;20190;-81
2022/06/24 15:32:11;;;;;;;7.80;7.20;;;25.50;99.90;;;;;;4939940;29;20889;-81
2022/06/24 15:34:36;;;;;;;8.70;8.00;;;25.50;99.90;;;;;;4957631;29;20189;-81
2022/06/24 15:37:03;;;;;;;8.50;7.70;;;25.50;99.90;;;;;;4957440;29;20549;-81
2022/06/24 15:39:29;;;;;;;10.70;7.37;;;25.40;99.90;;;;;;4957537;29;20190;-81
2022/06/24 15:41:54;;;;;;;9.90;8.90;;;25.40;99.90;;;;;;4957124;29;20430;-81
2022/06/24 15:44:20;;;;;;;8.90;8.10;;;25.30;99.90;;;;;;4956143;28;20186;-81
2022/06/24 15:46:46;;;;;;;8.10;7.30;;;25.30;99.90;;;;;;4957328;29;20179;-81
2022/06/24 15:49:12;;;;;;;9.53;8.73;;;25.30;99.90;;;;;;4957312;29;20632;-81
2022/06/24 15:51:38;;;;;;;10.40;8.47;;;25.20;99.90;;;;;;4957288;29;20419;-81
2022/06/24 15:54:04;;;;;;;11.20;8.60;;;25.20;99.90;;;;;;4957098;29;20985;-81
2022/06/24 15:56:30;;;;;;;11.27;10.37;;;25.20;99.90;;;;;;4957293;29;20516;-81
2022/06/24 15:58:55;;;;;;;10.13;9.23;;;25.00;99.90;;;;;;4957006;29;20593;-81
2022/06/24 16:01:21;;;;;;;10.87;9.87;;;25.00;99.90;;;;;;4957006;29;20171;-81
2022/06/24 16:03:47;;;;;;;11.73;10.77;;;24.90;99.90;;;;;;4957094;29;20265;-81
2022/06/24 16:06:13;;;;;;;10.87;9.90;;;24.70;99.90;;;;;;4957013;29;20539;-81
2022/06/24 16:08:39;;;;;;;9.73;8.93;;;24.60;99.90;;;;;;4956989;29;20265;-81